Hampden Sydney, Virginia
Current Conditions -  °F | °C
As of 12:35 PM on Friday 24 Oct 2014 (Local Time) from KFVX Reporting Station
Clear Clear  
Wind Chill: 66°   Ceiling: Unl
Heat Index: 66°   Visibility: 10mi
Dew Point: 39°   Wind: 6mph
Humidity: 37%   Direction: 240°WSW
Pressure: 29.99"   Gusts: NA
Location:  37.24°N, 78.46°W
Report Text: KFVX 241635Z AUTO 24005KT 10SM CLR 19/04 A2999 RMK AO2
Loading
Personal Weather Stations






























Interactive Weather Map
Tropical Storm Tracking
New forecast layout! Learn more

10-Day Weather Forecast

Advertisements
Track Severe Weather on mobile